sensor_id;sensor_type;location;lat;lon;timestamp;P1;durP1;ratioP1;P2;durP2;ratioP2
24233;SDS011;12365;43.554;1.388;2023-12-07T00:01:28;44.22;;;26.20;;
24233;SDS011;12365;43.554;1.388;2023-12-07T00:03:53;47.75;;;25.05;;
24233;SDS011;12365;43.554;1.388;2023-12-07T00:06:18;45.25;;;23.17;;
24233;SDS011;12365;43.554;1.388;2023-12-07T00:08:44;34.75;;;20.20;;
24233;SDS011;12365;43.554;1.388;2023-12-07T00:11:09;45.53;;;23.73;;
24233;SDS011;12365;43.554;1.388;2023-12-07T00:13:35;49.30;;;26.20;;
24233;SDS011;12365;43.554;1.388;2023-12-07T00:16:00;54.28;;;26.92;;
24233;SDS011;12365;43.554;1.388;2023-12-07T00:18:25;97.68;;;26.55;;
24233;SDS011;12365;43.554;1.388;2023-12-07T00:20:51;66.53;;;25.35;;
24233;SDS011;12365;43.554;1.388;2023-12-07T00:23:16;61.92;;;25.48;;
24233;SDS011;12365;43.554;1.388;2023-12-07T00:25:41;53.90;;;27.05;;
24233;SDS011;12365;43.554;1.388;2023-12-07T00:28:07;45.28;;;24.85;;
24233;SDS011;12365;43.554;1.388;2023-12-07T00:30:32;47.85;;;26.23;;
24233;SDS011;12365;43.554;1.388;2023-12-07T00:32:58;44.20;;;24.70;;
24233;SDS011;12365;43.554;1.388;2023-12-07T00:35:24;41.60;;;24.48;;
24233;SDS011;12365;43.554;1.388;2023-12-07T00:37:49;39.95;;;24.05;;
24233;SDS011;12365;43.554;1.388;2023-12-07T00:40:15;43.17;;;25.10;;
24233;SDS011;12365;43.554;1.388;2023-12-07T00:42:41;57.13;;;26.55;;
24233;SDS011;12365;43.554;1.388;2023-12-07T00:45:06;51.10;;;25.63;;
24233;SDS011;12365;43.554;1.388;2023-12-07T00:47:32;45.88;;;24.27;;
24233;SDS011;12365;43.554;1.388;2023-12-07T00:49:57;50.00;;;24.25;;
24233;SDS011;12365;43.554;1.388;2023-12-07T00:52:23;47.17;;;24.40;;
24233;SDS011;12365;43.554;1.388;2023-12-07T00:54:48;41.63;;;23.55;;
24233;SDS011;12365;43.554;1.388;2023-12-07T00:57:13;66.72;;;24.63;;
24233;SDS011;12365;43.554;1.388;2023-12-07T00:59:39;70.55;;;25.88;;
24233;SDS011;12365;43.554;1.388;2023-12-07T01:02:04;75.47;;;24.80;;
24233;SDS011;12365;43.554;1.388;2023-12-07T01:04:30;68.20;;;25.88;;
24233;SDS011;12365;43.554;1.388;2023-12-07T01:06:57;64.20;;;25.27;;
24233;SDS011;12365;43.554;1.388;2023-12-07T01:09:22;70.65;;;25.48;;
24233;SDS011;12365;43.554;1.388;2023-12-07T01:11:48;49.67;;;22.85;;
24233;SDS011;12365;43.554;1.388;2023-12-07T01:14:14;60.50;;;23.30;;
24233;SDS011;12365;43.554;1.388;2023-12-07T01:16:39;46.35;;;22.65;;
24233;SDS011;12365;43.554;1.388;2023-12-07T01:19:05;57.90;;;21.73;;
24233;SDS011;12365;43.554;1.388;2023-12-07T01:21:32;58.45;;;21.77;;
24233;SDS011;12365;43.554;1.388;2023-12-07T01:23:57;43.15;;;19.40;;
24233;SDS011;12365;43.554;1.388;2023-12-07T01:26:23;39.55;;;19.48;;
24233;SDS011;12365;43.554;1.388;2023-12-07T01:28:48;51.53;;;20.17;;
24233;SDS011;12365;43.554;1.388;2023-12-07T01:31:14;33.88;;;18.77;;
24233;SDS011;12365;43.554;1.388;2023-12-07T01:33:39;68.60;;;18.35;;
24233;SDS011;12365;43.554;1.388;2023-12-07T01:36:05;39.22;;;18.45;;
24233;SDS011;12365;43.554;1.388;2023-12-07T01:38:30;34.28;;;17.70;;
24233;SDS011;12365;43.554;1.388;2023-12-07T01:40:56;32.17;;;18.50;;
24233;SDS011;12365;43.554;1.388;2023-12-07T01:43:22;36.08;;;17.45;;
24233;SDS011;12365;43.554;1.388;2023-12-07T01:45:48;32.80;;;17.90;;
24233;SDS011;12365;43.554;1.388;2023-12-07T01:48:18;46.08;;;17.75;;
24233;SDS011;12365;43.554;1.388;2023-12-07T01:50:44;35.10;;;17.20;;
24233;SDS011;12365;43.554;1.388;2023-12-07T01:53:11;71.30;;;16.98;;
24233;SDS011;12365;43.554;1.388;2023-12-07T01:55:37;50.70;;;16.30;;
24233;SDS011;12365;43.554;1.388;2023-12-07T01:58:03;32.03;;;15.55;;
24233;SDS011;12365;43.554;1.388;2023-12-07T02:00:29;29.17;;;15.40;;
24233;SDS011;12365;43.554;1.388;2023-12-07T02:02:55;30.77;;;15.40;;
24233;SDS011;12365;43.554;1.388;2023-12-07T02:05:20;26.90;;;14.90;;
24233;SDS011;12365;43.554;1.388;2023-12-07T02:07:46;35.55;;;14.82;;
24233;SDS011;12365;43.554;1.388;2023-12-07T02:10:11;22.35;;;12.65;;
24233;SDS011;12365;43.554;1.388;2023-12-07T02:12:38;25.98;;;12.57;;
24233;SDS011;12365;43.554;1.388;2023-12-07T02:15:04;22.50;;;12.75;;
24233;SDS011;12365;43.554;1.388;2023-12-07T02:20:13;15.20;;;8.77;;
24233;SDS011;12365;43.554;1.388;2023-12-07T02:25:07;17.60;;;11.02;;
24233;SDS011;12365;43.554;1.388;2023-12-07T02:27:40;17.38;;;10.77;;
24233;SDS011;12365;43.554;1.388;2023-12-07T02:30:08;16.55;;;10.10;;
24233;SDS011;12365;43.554;1.388;2023-12-07T02:32:35;15.23;;;9.63;;
24233;SDS011;12365;43.554;1.388;2023-12-07T02:35:04;16.23;;;10.32;;
24233;SDS011;12365;43.554;1.388;2023-12-07T02:37:35;15.38;;;9.85;;
24233;SDS011;12365;43.554;1.388;2023-12-07T02:40:06;14.93;;;9.45;;
24233;SDS011;12365;43.554;1.388;2023-12-07T02:42:35;14.88;;;9.38;;
24233;SDS011;12365;43.554;1.388;2023-12-07T02:45:04;14.27;;;9.02;;
24233;SDS011;12365;43.554;1.388;2023-12-07T02:47:30;14.18;;;9.05;;
24233;SDS011;12365;43.554;1.388;2023-12-07T02:49:55;13.98;;;8.63;;
24233;SDS011;12365;43.554;1.388;2023-12-07T02:52:21;12.77;;;8.43;;
24233;SDS011;12365;43.554;1.388;2023-12-07T02:54:46;14.38;;;8.15;;
24233;SDS011;12365;43.554;1.388;2023-12-07T02:57:13;13.35;;;8.07;;
24233;SDS011;12365;43.554;1.388;2023-12-07T02:59:39;12.05;;;7.72;;
24233;SDS011;12365;43.554;1.388;2023-12-07T03:02:05;14.73;;;8.48;;
24233;SDS011;12365;43.554;1.388;2023-12-07T03:04:30;14.95;;;8.40;;
24233;SDS011;12365;43.554;1.388;2023-12-07T03:06:56;14.60;;;8.50;;
24233;SDS011;12365;43.554;1.388;2023-12-07T03:09:21;19.50;;;8.20;;
24233;SDS011;12365;43.554;1.388;2023-12-07T03:11:47;47.20;;;8.65;;
24233;SDS011;12365;43.554;1.388;2023-12-07T03:14:12;15.95;;;8.23;;
24233;SDS011;12365;43.554;1.388;2023-12-07T03:16:38;24.20;;;8.13;;
24233;SDS011;12365;43.554;1.388;2023-12-07T03:19:04;14.52;;;8.18;;
24233;SDS011;12365;43.554;1.388;2023-12-07T03:21:29;14.00;;;8.27;;
24233;SDS011;12365;43.554;1.388;2023-12-07T03:23:54;18.73;;;8.27;;
24233;SDS011;12365;43.554;1.388;2023-12-07T03:26:20;22.70;;;8.35;;
24233;SDS011;12365;43.554;1.388;2023-12-07T03:28:46;16.75;;;8.55;;
24233;SDS011;12365;43.554;1.388;2023-12-07T03:31:11;42.40;;;9.40;;
24233;SDS011;12365;43.554;1.388;2023-12-07T03:33:36;44.00;;;8.68;;
24233;SDS011;12365;43.554;1.388;2023-12-07T03:36:03;29.08;;;9.50;;
24233;SDS011;12365;43.554;1.388;2023-12-07T03:38:29;15.30;;;8.90;;
24233;SDS011;12365;43.554;1.388;2023-12-07T03:40:54;14.63;;;8.85;;
24233;SDS011;12365;43.554;1.388;2023-12-07T03:43:19;17.95;;;9.45;;
24233;SDS011;12365;43.554;1.388;2023-12-07T03:45:45;24.98;;;9.35;;
24233;SDS011;12365;43.554;1.388;2023-12-07T03:48:11;25.90;;;9.38;;
24233;SDS011;12365;43.554;1.388;2023-12-07T03:50:36;52.92;;;10.77;;
24233;SDS011;12365;43.554;1.388;2023-12-07T03:53:02;31.50;;;9.75;;
24233;SDS011;12365;43.554;1.388;2023-12-07T03:55:27;37.25;;;9.82;;
24233;SDS011;12365;43.554;1.388;2023-12-07T03:57:52;42.90;;;9.63;;
24233;SDS011;12365;43.554;1.388;2023-12-07T04:00:18;34.33;;;8.90;;
24233;SDS011;12365;43.554;1.388;2023-12-07T04:02:43;22.13;;;9.70;;
24233;SDS011;12365;43.554;1.388;2023-12-07T04:05:08;28.15;;;9.65;;
24233;SDS011;12365;43.554;1.388;2023-12-07T04:07:34;52.60;;;9.85;;
24233;SDS011;12365;43.554;1.388;2023-12-07T04:09:59;41.58;;;9.68;;
24233;SDS011;12365;43.554;1.388;2023-12-07T04:12:25;37.10;;;10.88;;
24233;SDS011;12365;43.554;1.388;2023-12-07T04:14:50;32.55;;;9.13;;
24233;SDS011;12365;43.554;1.388;2023-12-07T04:17:16;25.90;;;8.73;;
24233;SDS011;12365;43.554;1.388;2023-12-07T04:19:42;44.30;;;10.38;;
24233;SDS011;12365;43.554;1.388;2023-12-07T04:22:07;163.90;;;62.00;;
24233;SDS011;12365;43.554;1.388;2023-12-07T04:24:33;70.18;;;13.55;;
24233;SDS011;12365;43.554;1.388;2023-12-07T04:26:58;59.42;;;9.40;;
24233;SDS011;12365;43.554;1.388;2023-12-07T04:29:23;31.05;;;9.75;;
24233;SDS011;12365;43.554;1.388;2023-12-07T04:31:49;28.15;;;9.10;;
24233;SDS011;12365;43.554;1.388;2023-12-07T04:34:14;39.00;;;9.63;;
24233;SDS011;12365;43.554;1.388;2023-12-07T04:36:39;60.58;;;9.13;;
24233;SDS011;12365;43.554;1.388;2023-12-07T04:39:05;37.95;;;8.75;;
24233;SDS011;12365;43.554;1.388;2023-12-07T04:41:30;27.05;;;7.97;;
24233;SDS011;12365;43.554;1.388;2023-12-07T04:43:56;36.10;;;11.85;;
24233;SDS011;12365;43.554;1.388;2023-12-07T04:46:21;34.05;;;13.20;;
24233;SDS011;12365;43.554;1.388;2023-12-07T04:48:46;22.08;;;9.93;;
24233;SDS011;12365;43.554;1.388;2023-12-07T04:51:12;29.90;;;9.55;;
24233;SDS011;12365;43.554;1.388;2023-12-07T04:53:37;20.98;;;9.98;;
24233;SDS011;12365;43.554;1.388;2023-12-07T04:56:02;17.08;;;8.93;;
24233;SDS011;12365;43.554;1.388;2023-12-07T04:58:28;30.00;;;16.33;;
24233;SDS011;12365;43.554;1.388;2023-12-07T05:00:53;31.77;;;15.38;;
24233;SDS011;12365;43.554;1.388;2023-12-07T05:03:19;18.00;;;10.55;;
24233;SDS011;12365;43.554;1.388;2023-12-07T05:05:44;15.77;;;9.55;;
24233;SDS011;12365;43.554;1.388;2023-12-07T05:08:09;14.65;;;9.15;;
24233;SDS011;12365;43.554;1.388;2023-12-07T05:10:35;14.45;;;8.32;;
24233;SDS011;12365;43.554;1.388;2023-12-07T05:13:00;14.10;;;8.55;;
24233;SDS011;12365;43.554;1.388;2023-12-07T05:15:25;14.57;;;8.98;;
24233;SDS011;12365;43.554;1.388;2023-12-07T05:17:51;17.00;;;10.27;;
24233;SDS011;12365;43.554;1.388;2023-12-07T05:20:16;14.23;;;9.30;;
24233;SDS011;12365;43.554;1.388;2023-12-07T05:22:43;17.63;;;10.60;;
24233;SDS011;12365;43.554;1.388;2023-12-07T05:25:09;15.23;;;9.45;;
24233;SDS011;12365;43.554;1.388;2023-12-07T05:27:34;14.23;;;9.30;;
24233;SDS011;12365;43.554;1.388;2023-12-07T05:29:59;13.98;;;9.10;;
24233;SDS011;12365;43.554;1.388;2023-12-07T05:32:25;15.50;;;9.65;;
24233;SDS011;12365;43.554;1.388;2023-12-07T05:34:50;15.82;;;10.35;;
24233;SDS011;12365;43.554;1.388;2023-12-07T05:37:15;14.65;;;9.32;;
24233;SDS011;12365;43.554;1.388;2023-12-07T05:39:41;13.75;;;8.93;;
24233;SDS011;12365;43.554;1.388;2023-12-07T05:42:06;13.95;;;8.70;;
24233;SDS011;12365;43.554;1.388;2023-12-07T05:44:31;12.52;;;8.15;;
24233;SDS011;12365;43.554;1.388;2023-12-07T05:46:57;14.43;;;8.73;;
24233;SDS011;12365;43.554;1.388;2023-12-07T05:49:22;14.82;;;8.65;;
24233;SDS011;12365;43.554;1.388;2023-12-07T05:51:48;15.05;;;8.65;;
24233;SDS011;12365;43.554;1.388;2023-12-07T05:54:14;13.93;;;8.68;;
24233;SDS011;12365;43.554;1.388;2023-12-07T05:56:39;17.77;;;9.77;;
24233;SDS011;12365;43.554;1.388;2023-12-07T05:59:05;20.13;;;11.70;;
24233;SDS011;12365;43.554;1.388;2023-12-07T06:01:31;19.23;;;11.35;;
24233;SDS011;12365;43.554;1.388;2023-12-07T06:03:57;19.20;;;11.88;;
24233;SDS011;12365;43.554;1.388;2023-12-07T06:06:23;22.80;;;13.80;;
24233;SDS011;12365;43.554;1.388;2023-12-07T06:08:48;23.73;;;13.38;;
24233;SDS011;12365;43.554;1.388;2023-12-07T06:11:14;20.95;;;12.00;;
24233;SDS011;12365;43.554;1.388;2023-12-07T06:13:39;22.52;;;12.05;;
24233;SDS011;12365;43.554;1.388;2023-12-07T06:16:05;24.38;;;12.15;;
24233;SDS011;12365;43.554;1.388;2023-12-07T06:18:30;22.00;;;12.40;;
24233;SDS011;12365;43.554;1.388;2023-12-07T06:20:56;19.80;;;11.93;;
24233;SDS011;12365;43.554;1.388;2023-12-07T06:23:21;19.08;;;11.65;;
24233;SDS011;12365;43.554;1.388;2023-12-07T06:25:47;20.05;;;11.43;;
24233;SDS011;12365;43.554;1.388;2023-12-07T06:28:12;20.13;;;12.90;;
24233;SDS011;12365;43.554;1.388;2023-12-07T06:30:37;22.25;;;11.85;;
24233;SDS011;12365;43.554;1.388;2023-12-07T06:33:03;25.00;;;11.52;;
24233;SDS011;12365;43.554;1.388;2023-12-07T06:35:29;18.80;;;11.40;;
24233;SDS011;12365;43.554;1.388;2023-12-07T06:37:55;20.52;;;11.10;;
24233;SDS011;12365;43.554;1.388;2023-12-07T06:40:21;20.67;;;11.30;;
24233;SDS011;12365;43.554;1.388;2023-12-07T06:42:46;19.20;;;11.35;;
24233;SDS011;12365;43.554;1.388;2023-12-07T06:45:13;23.17;;;14.35;;
24233;SDS011;12365;43.554;1.388;2023-12-07T06:47:39;24.98;;;14.18;;
24233;SDS011;12365;43.554;1.388;2023-12-07T06:50:07;23.27;;;13.93;;
24233;SDS011;12365;43.554;1.388;2023-12-07T06:52:35;22.83;;;12.93;;
24233;SDS011;12365;43.554;1.388;2023-12-07T06:55:01;22.23;;;12.25;;
24233;SDS011;12365;43.554;1.388;2023-12-07T06:57:26;21.13;;;12.52;;
24233;SDS011;12365;43.554;1.388;2023-12-07T06:59:52;20.15;;;10.90;;
24233;SDS011;12365;43.554;1.388;2023-12-07T07:02:17;20.95;;;10.57;;
24233;SDS011;12365;43.554;1.388;2023-12-07T07:04:43;20.45;;;10.25;;
24233;SDS011;12365;43.554;1.388;2023-12-07T07:07:09;18.77;;;9.60;;
24233;SDS011;12365;43.554;1.388;2023-12-07T07:09:34;18.52;;;9.63;;
24233;SDS011;12365;43.554;1.388;2023-12-07T07:12:00;19.42;;;9.65;;
24233;SDS011;12365;43.554;1.388;2023-12-07T07:14:25;26.42;;;9.80;;
24233;SDS011;12365;43.554;1.388;2023-12-07T07:16:50;20.77;;;9.35;;
24233;SDS011;12365;43.554;1.388;2023-12-07T07:19:17;22.77;;;9.23;;
24233;SDS011;12365;43.554;1.388;2023-12-07T07:21:42;18.60;;;9.20;;
24233;SDS011;12365;43.554;1.388;2023-12-07T07:24:09;23.80;;;9.05;;
24233;SDS011;12365;43.554;1.388;2023-12-07T07:26:34;24.88;;;8.45;;
24233;SDS011;12365;43.554;1.388;2023-12-07T07:29:00;15.57;;;8.32;;
24233;SDS011;12365;43.554;1.388;2023-12-07T07:31:25;17.23;;;8.60;;
24233;SDS011;12365;43.554;1.388;2023-12-07T07:33:50;17.17;;;8.65;;
24233;SDS011;12365;43.554;1.388;2023-12-07T07:36:16;16.73;;;7.95;;
24233;SDS011;12365;43.554;1.388;2023-12-07T07:38:41;20.10;;;8.18;;
24233;SDS011;12365;43.554;1.388;2023-12-07T07:41:07;23.88;;;7.78;;
24233;SDS011;12365;43.554;1.388;2023-12-07T07:43:33;15.25;;;7.90;;
24233;SDS011;12365;43.554;1.388;2023-12-07T07:45:59;17.40;;;8.35;;
24233;SDS011;12365;43.554;1.388;2023-12-07T07:48:25;18.90;;;8.13;;
24233;SDS011;12365;43.554;1.388;2023-12-07T07:50:51;14.57;;;6.93;;
24233;SDS011;12365;43.554;1.388;2023-12-07T07:53:16;17.85;;;7.50;;
24233;SDS011;12365;43.554;1.388;2023-12-07T07:55:42;20.95;;;7.10;;
24233;SDS011;12365;43.554;1.388;2023-12-07T07:58:07;18.80;;;7.47;;
24233;SDS011;12365;43.554;1.388;2023-12-07T08:00:33;17.75;;;7.07;;
24233;SDS011;12365;43.554;1.388;2023-12-07T08:02:59;15.63;;;7.50;;
24233;SDS011;12365;43.554;1.388;2023-12-07T08:05:25;14.60;;;8.02;;
24233;SDS011;12365;43.554;1.388;2023-12-07T08:07:50;12.98;;;7.45;;
24233;SDS011;12365;43.554;1.388;2023-12-07T08:10:16;58.08;;;25.38;;
24233;SDS011;12365;43.554;1.388;2023-12-07T08:12:41;36.13;;;15.35;;
24233;SDS011;12365;43.554;1.388;2023-12-07T08:15:07;28.67;;;11.90;;
24233;SDS011;12365;43.554;1.388;2023-12-07T08:17:36;25.40;;;10.05;;
24233;SDS011;12365;43.554;1.388;2023-12-07T08:20:03;78.13;;;43.83;;
24233;SDS011;12365;43.554;1.388;2023-12-07T08:22:30;40.35;;;23.52;;
24233;SDS011;12365;43.554;1.388;2023-12-07T08:24:56;25.00;;;11.30;;
24233;SDS011;12365;43.554;1.388;2023-12-07T08:27:21;20.17;;;8.75;;
24233;SDS011;12365;43.554;1.388;2023-12-07T08:29:47;18.17;;;8.38;;
24233;SDS011;12365;43.554;1.388;2023-12-07T08:32:12;18.55;;;7.50;;
24233;SDS011;12365;43.554;1.388;2023-12-07T08:34:39;28.48;;;7.75;;
24233;SDS011;12365;43.554;1.388;2023-12-07T08:37:04;21.58;;;6.90;;
24233;SDS011;12365;43.554;1.388;2023-12-07T08:39:30;13.65;;;6.68;;
24233;SDS011;12365;43.554;1.388;2023-12-07T08:41:55;18.50;;;6.95;;
24233;SDS011;12365;43.554;1.388;2023-12-07T08:44:21;13.88;;;7.18;;
24233;SDS011;12365;43.554;1.388;2023-12-07T08:46:46;11.48;;;6.45;;
24233;SDS011;12365;43.554;1.388;2023-12-07T08:49:12;13.50;;;6.57;;
24233;SDS011;12365;43.554;1.388;2023-12-07T08:51:37;13.27;;;6.43;;
24233;SDS011;12365;43.554;1.388;2023-12-07T08:54:02;13.38;;;6.53;;
24233;SDS011;12365;43.554;1.388;2023-12-07T08:56:28;19.80;;;6.60;;
24233;SDS011;12365;43.554;1.388;2023-12-07T08:58:53;24.90;;;6.72;;
24233;SDS011;12365;43.554;1.388;2023-12-07T09:01:18;16.15;;;7.30;;
24233;SDS011;12365;43.554;1.388;2023-12-07T09:03:44;14.65;;;7.70;;
24233;SDS011;12365;43.554;1.388;2023-12-07T09:06:09;21.85;;;8.05;;
24233;SDS011;12365;43.554;1.388;2023-12-07T09:08:34;27.23;;;17.25;;
24233;SDS011;12365;43.554;1.388;2023-12-07T09:11:00;52.83;;;20.55;;
24233;SDS011;12365;43.554;1.388;2023-12-07T09:13:25;31.85;;;11.63;;
24233;SDS011;12365;43.554;1.388;2023-12-07T09:15:51;16.58;;;10.55;;
24233;SDS011;12365;43.554;1.388;2023-12-07T09:18:16;9.48;;;4.50;;
24233;SDS011;12365;43.554;1.388;2023-12-07T09:20:41;14.65;;;4.68;;
24233;SDS011;12365;43.554;1.388;2023-12-07T09:23:13;21.17;;;6.47;;
24233;SDS011;12365;43.554;1.388;2023-12-07T09:25:40;30.10;;;11.27;;
24233;SDS011;12365;43.554;1.388;2023-12-07T09:28:05;20.20;;;10.32;;
24233;SDS011;12365;43.554;1.388;2023-12-07T09:30:31;6.53;;;4.57;;
24233;SDS011;12365;43.554;1.388;2023-12-07T09:32:58;5.10;;;3.58;;
24233;SDS011;12365;43.554;1.388;2023-12-07T09:35:24;3.15;;;1.73;;
24233;SDS011;12365;43.554;1.388;2023-12-07T09:37:49;8.63;;;3.08;;
24233;SDS011;12365;43.554;1.388;2023-12-07T09:40:16;6.72;;;1.55;;
24233;SDS011;12365;43.554;1.388;2023-12-07T09:42:45;4.10;;;1.60;;
24233;SDS011;12365;43.554;1.388;2023-12-07T09:45:11;4.75;;;1.63;;
24233;SDS011;12365;43.554;1.388;2023-12-07T09:47:37;5.88;;;1.38;;
24233;SDS011;12365;43.554;1.388;2023-12-07T09:50:05;5.47;;;2.13;;
24233;SDS011;12365;43.554;1.388;2023-12-07T09:52:33;3.17;;;1.48;;
24233;SDS011;12365;43.554;1.388;2023-12-07T09:54:59;4.10;;;1.23;;
24233;SDS011;12365;43.554;1.388;2023-12-07T09:57:26;3.72;;;1.27;;
24233;SDS011;12365;43.554;1.388;2023-12-07T09:59:52;4.95;;;1.25;;
24233;SDS011;12365;43.554;1.388;2023-12-07T10:02:18;4.50;;;1.17;;
24233;SDS011;12365;43.554;1.388;2023-12-07T10:04:43;4.40;;;1.25;;
24233;SDS011;12365;43.554;1.388;2023-12-07T10:07:08;2.30;;;1.25;;
24233;SDS011;12365;43.554;1.388;2023-12-07T10:09:40;4.50;;;1.25;;
24233;SDS011;12365;43.554;1.388;2023-12-07T10:12:06;4.28;;;1.23;;
24233;SDS011;12365;43.554;1.388;2023-12-07T10:14:32;4.40;;;1.45;;
24233;SDS011;12365;43.554;1.388;2023-12-07T10:16:58;4.00;;;1.40;;
24233;SDS011;12365;43.554;1.388;2023-12-07T10:19:25;1.95;;;1.13;;
24233;SDS011;12365;43.554;1.388;2023-12-07T10:21:52;4.05;;;1.50;;
24233;SDS011;12365;43.554;1.388;2023-12-07T10:24:19;4.55;;;1.45;;
24233;SDS011;12365;43.554;1.388;2023-12-07T10:26:46;4.32;;;1.90;;
24233;SDS011;12365;43.554;1.388;2023-12-07T10:29:13;3.22;;;1.30;;
24233;SDS011;12365;43.554;1.388;2023-12-07T10:31:39;4.40;;;1.50;;
24233;SDS011;12365;43.554;1.388;2023-12-07T10:34:05;3.75;;;1.52;;
24233;SDS011;12365;43.554;1.388;2023-12-07T10:36:32;3.50;;;1.67;;
24233;SDS011;12365;43.554;1.388;2023-12-07T10:39:00;5.60;;;1.70;;
24233;SDS011;12365;43.554;1.388;2023-12-07T10:41:25;2.65;;;1.52;;
24233;SDS011;12365;43.554;1.388;2023-12-07T10:43:52;5.20;;;1.80;;
24233;SDS011;12365;43.554;1.388;2023-12-07T10:46:19;5.35;;;2.13;;
24233;SDS011;12365;43.554;1.388;2023-12-07T10:48:46;4.25;;;2.30;;
24233;SDS011;12365;43.554;1.388;2023-12-07T10:51:14;5.90;;;1.92;;
24233;SDS011;12365;43.554;1.388;2023-12-07T10:53:55;3.13;;;1.40;;
24233;SDS011;12365;43.554;1.388;2023-12-07T10:56:33;2.17;;;1.30;;
24233;SDS011;12365;43.554;1.388;2023-12-07T10:59:06;2.90;;;1.38;;
24233;SDS011;12365;43.554;1.388;2023-12-07T11:01:33;3.83;;;1.45;;
24233;SDS011;12365;43.554;1.388;2023-12-07T11:03:58;6.20;;;1.67;;
24233;SDS011;12365;43.554;1.388;2023-12-07T11:06:25;2.05;;;1.23;;
24233;SDS011;12365;43.554;1.388;2023-12-07T11:08:56;3.17;;;1.70;;
24233;SDS011;12365;43.554;1.388;2023-12-07T11:11:24;4.22;;;1.25;;
24233;SDS011;12365;43.554;1.388;2023-12-07T11:14:13;4.40;;;1.20;;
24233;SDS011;12365;43.554;1.388;2023-12-07T11:16:40;4.50;;;1.50;;
24233;SDS011;12365;43.554;1.388;2023-12-07T11:21:58;6.13;;;1.80;;
24233;SDS011;12365;43.554;1.388;2023-12-07T11:24:33;6.43;;;1.77;;
24233;SDS011;12365;43.554;1.388;2023-12-07T11:26:58;4.28;;;1.50;;
24233;SDS011;12365;43.554;1.388;2023-12-07T11:29:24;3.33;;;1.65;;
24233;SDS011;12365;43.554;1.388;2023-12-07T11:31:50;3.60;;;1.40;;
24233;SDS011;12365;43.554;1.388;2023-12-07T11:34:40;5.20;;;1.48;;
24233;SDS011;12365;43.554;1.388;2023-12-07T11:37:07;4.35;;;1.90;;
24233;SDS011;12365;43.554;1.388;2023-12-07T11:39:34;3.47;;;1.67;;
24233;SDS011;12365;43.554;1.388;2023-12-07T11:42:15;2.63;;;1.33;;
24233;SDS011;12365;43.554;1.388;2023-12-07T11:44:43;3.08;;;1.60;;
24233;SDS011;12365;43.554;1.388;2023-12-07T11:47:10;4.10;;;1.50;;
24233;SDS011;12365;43.554;1.388;2023-12-07T11:49:41;5.03;;;1.70;;
24233;SDS011;12365;43.554;1.388;2023-12-07T11:52:14;3.75;;;1.58;;
24233;SDS011;12365;43.554;1.388;2023-12-07T11:54:47;3.38;;;1.70;;
24233;SDS011;12365;43.554;1.388;2023-12-07T11:57:14;3.08;;;1.40;;
24233;SDS011;12365;43.554;1.388;2023-12-07T11:59:41;3.33;;;1.60;;
24233;SDS011;12365;43.554;1.388;2023-12-07T12:02:10;3.50;;;1.40;;
24233;SDS011;12365;43.554;1.388;2023-12-07T12:04:36;4.70;;;1.73;;
24233;SDS011;12365;43.554;1.388;2023-12-07T12:07:03;8.68;;;1.73;;
24233;SDS011;12365;43.554;1.388;2023-12-07T12:09:28;5.88;;;1.63;;
24233;SDS011;12365;43.554;1.388;2023-12-07T12:11:54;3.45;;;1.60;;
24233;SDS011;12365;43.554;1.388;2023-12-07T12:14:19;6.97;;;2.38;;
24233;SDS011;12365;43.554;1.388;2023-12-07T12:16:45;3.83;;;1.60;;
24233;SDS011;12365;43.554;1.388;2023-12-07T12:19:11;2.75;;;1.35;;
24233;SDS011;12365;43.554;1.388;2023-12-07T12:21:37;6.35;;;1.80;;
24233;SDS011;12365;43.554;1.388;2023-12-07T12:24:06;4.57;;;1.50;;
24233;SDS011;12365;43.554;1.388;2023-12-07T12:26:35;2.00;;;1.20;;
24233;SDS011;12365;43.554;1.388;2023-12-07T12:29:04;2.65;;;1.27;;
24233;SDS011;12365;43.554;1.388;2023-12-07T12:31:31;3.10;;;1.55;;
24233;SDS011;12365;43.554;1.388;2023-12-07T12:33:57;2.33;;;1.48;;
24233;SDS011;12365;43.554;1.388;2023-12-07T12:36:23;4.57;;;1.88;;
24233;SDS011;12365;43.554;1.388;2023-12-07T12:38:52;3.80;;;1.80;;
24233;SDS011;12365;43.554;1.388;2023-12-07T12:41:18;2.83;;;1.50;;
24233;SDS011;12365;43.554;1.388;2023-12-07T12:43:44;4.93;;;1.60;;
24233;SDS011;12365;43.554;1.388;2023-12-07T12:46:10;2.90;;;1.38;;
24233;SDS011;12365;43.554;1.388;2023-12-07T12:48:36;2.90;;;1.10;;
24233;SDS011;12365;43.554;1.388;2023-12-07T12:51:10;5.45;;;1.55;;
24233;SDS011;12365;43.554;1.388;2023-12-07T12:53:44;2.60;;;1.40;;
24233;SDS011;12365;43.554;1.388;2023-12-07T12:56:11;6.65;;;1.40;;
24233;SDS011;12365;43.554;1.388;2023-12-07T12:58:37;2.40;;;1.45;;
24233;SDS011;12365;43.554;1.388;2023-12-07T13:01:03;5.25;;;2.00;;
24233;SDS011;12365;43.554;1.388;2023-12-07T13:03:28;3.55;;;1.50;;
24233;SDS011;12365;43.554;1.388;2023-12-07T13:05:54;2.80;;;1.52;;
24233;SDS011;12365;43.554;1.388;2023-12-07T13:08:19;3.60;;;1.17;;
24233;SDS011;12365;43.554;1.388;2023-12-07T13:10:45;3.50;;;1.27;;
24233;SDS011;12365;43.554;1.388;2023-12-07T13:13:10;2.88;;;1.23;;
24233;SDS011;12365;43.554;1.388;2023-12-07T13:15:35;4.80;;;1.30;;
24233;SDS011;12365;43.554;1.388;2023-12-07T13:18:02;2.13;;;1.10;;
24233;SDS011;12365;43.554;1.388;2023-12-07T13:20:29;2.40;;;1.08;;
24233;SDS011;12365;43.554;1.388;2023-12-07T13:22:55;4.95;;;1.20;;
24233;SDS011;12365;43.554;1.388;2023-12-07T13:25:21;2.75;;;1.00;;
24233;SDS011;12365;43.554;1.388;2023-12-07T13:27:46;3.95;;;1.20;;
24233;SDS011;12365;43.554;1.388;2023-12-07T13:30:11;7.20;;;1.20;;
24233;SDS011;12365;43.554;1.388;2023-12-07T13:32:37;2.70;;;1.08;;
24233;SDS011;12365;43.554;1.388;2023-12-07T13:35:03;5.97;;;1.23;;
24233;SDS011;12365;43.554;1.388;2023-12-07T13:37:30;2.42;;;1.05;;
24233;SDS011;12365;43.554;1.388;2023-12-07T13:39:55;1.67;;;1.10;;
24233;SDS011;12365;43.554;1.388;2023-12-07T13:42:23;3.17;;;1.20;;
24233;SDS011;12365;43.554;1.388;2023-12-07T13:44:52;3.13;;;1.13;;
24233;SDS011;12365;43.554;1.388;2023-12-07T13:47:24;2.17;;;1.13;;
24233;SDS011;12365;43.554;1.388;2023-12-07T13:50:00;5.47;;;1.30;;
24233;SDS011;12365;43.554;1.388;2023-12-07T13:52:25;3.53;;;1.20;;
24233;SDS011;12365;43.554;1.388;2023-12-07T13:54:51;2.20;;;1.10;;
24233;SDS011;12365;43.554;1.388;2023-12-07T13:57:17;5.60;;;1.35;;
24233;SDS011;12365;43.554;1.388;2023-12-07T13:59:43;3.60;;;1.08;;
24233;SDS011;12365;43.554;1.388;2023-12-07T14:02:09;1.65;;;1.00;;
24233;SDS011;12365;43.554;1.388;2023-12-07T14:04:35;6.50;;;1.30;;
24233;SDS011;12365;43.554;1.388;2023-12-07T14:07:14;4.28;;;1.40;;
24233;SDS011;12365;43.554;1.388;2023-12-07T14:09:42;4.03;;;1.30;;
24233;SDS011;12365;43.554;1.388;2023-12-07T14:12:11;2.47;;;0.95;;
24233;SDS011;12365;43.554;1.388;2023-12-07T14:14:39;2.67;;;1.10;;
24233;SDS011;12365;43.554;1.388;2023-12-07T14:17:10;1.58;;;1.13;;
24233;SDS011;12365;43.554;1.388;2023-12-07T14:19:37;3.75;;;1.20;;
24233;SDS011;12365;43.554;1.388;2023-12-07T14:22:03;3.55;;;1.30;;
24233;SDS011;12365;43.554;1.388;2023-12-07T14:24:29;2.53;;;1.10;;
24233;SDS011;12365;43.554;1.388;2023-12-07T14:26:56;1.67;;;1.00;;
24233;SDS011;12365;43.554;1.388;2023-12-07T14:29:22;3.47;;;1.30;;
24233;SDS011;12365;43.554;1.388;2023-12-07T14:31:49;4.53;;;1.27;;
24233;SDS011;12365;43.554;1.388;2023-12-07T14:34:16;4.88;;;1.00;;
24233;SDS011;12365;43.554;1.388;2023-12-07T14:36:42;5.07;;;1.27;;
24233;SDS011;12365;43.554;1.388;2023-12-07T14:39:09;3.10;;;1.35;;